createdAt,value
2023-01-13T00:01:08.298Z,8.01
2023-01-13T00:03:36.423Z,7.97
2023-01-13T00:06:05.096Z,7.91
2023-01-13T00:08:35.883Z,7.85
2023-01-13T00:11:04.241Z,7.85
2023-01-13T00:13:35.327Z,7.82
2023-01-13T00:16:06.257Z,7.81
2023-01-13T00:18:34.833Z,7.77
2023-01-13T00:21:04.769Z,7.79
2023-01-13T00:23:35.684Z,7.83
2023-01-13T00:26:06.123Z,7.82
2023-01-13T00:28:34.313Z,7.81
2023-01-13T00:31:06.522Z,7.82
2023-01-13T00:33:37.603Z,7.82
2023-01-13T00:36:08.112Z,7.80
2023-01-13T00:38:38.920Z,7.80
2023-01-13T00:41:09.030Z,7.82
2023-01-13T00:43:37.761Z,7.78
2023-01-13T00:46:06.935Z,7.81
2023-01-13T00:48:35.709Z,7.80
2023-01-13T00:51:05.770Z,7.74
2023-01-13T00:53:36.407Z,7.76
2023-01-13T00:56:08.321Z,7.74
2023-01-13T00:58:37.062Z,7.73
2023-01-13T01:01:07.481Z,7.72
2023-01-13T01:03:36.319Z,7.63
2023-01-13T01:06:07.342Z,7.63
2023-01-13T01:08:35.928Z,7.64
2023-01-13T01:11:07.278Z,7.59
2023-01-13T01:13:35.830Z,7.67
2023-01-13T01:16:07.553Z,7.66
2023-01-13T01:18:36.015Z,7.63
2023-01-13T01:21:04.363Z,7.64
2023-01-13T01:23:33.043Z,7.60
2023-01-13T01:26:02.522Z,7.65
2023-01-13T01:28:32.225Z,7.66
2023-01-13T01:31:02.006Z,7.67
2023-01-13T01:33:30.204Z,7.67
2023-01-13T01:35:58.440Z,7.67
2023-01-13T01:38:26.566Z,7.68
2023-01-13T01:41:06.836Z,7.68
2023-01-13T01:44:00.580Z,7.68
2023-01-13T01:46:31.101Z,7.71
2023-01-13T01:49:04.431Z,7.70
2023-01-13T01:51:36.965Z,7.72
2023-01-13T01:54:07.695Z,7.69
2023-01-13T01:56:39.755Z,7.68
2023-01-13T01:59:09.763Z,7.73
2023-01-13T02:01:39.394Z,7.78
2023-01-13T02:04:13.716Z,7.79
2023-01-13T02:06:43.009Z,7.81
2023-01-13T02:09:11.661Z,7.81
2023-01-13T02:11:57.533Z,7.86
2023-01-13T02:14:29.733Z,7.86
2023-01-13T02:17:13.773Z,7.90
2023-01-13T02:20:23.354Z,7.87
2023-01-13T02:23:44.003Z,7.85
2023-01-13T02:26:44.510Z,7.84
2023-01-13T02:29:45.987Z,7.84
2023-01-13T02:32:21.439Z,7.79
2023-01-13T02:34:58.696Z,7.82
2023-01-13T02:37:30.079Z,7.72
2023-01-13T02:40:00.637Z,7.78
2023-01-13T02:42:51.186Z,7.75
2023-01-13T02:45:25.041Z,7.77
2023-01-13T02:47:56.022Z,7.72
2023-01-13T02:50:28.352Z,7.74
2023-01-13T02:52:59.963Z,7.73
2023-01-13T02:55:32.434Z,7.70
2023-01-13T02:58:04.618Z,7.74
2023-01-13T03:00:34.968Z,7.69
2023-01-13T03:03:04.466Z,7.67
2023-01-13T03:05:34.496Z,7.73
2023-01-13T03:08:22.134Z,7.65
2023-01-13T03:11:02.551Z,7.68
2023-01-13T03:13:50.043Z,7.75
2023-01-13T03:16:32.461Z,7.75
2023-01-13T03:19:11.705Z,7.74
2023-01-13T03:21:45.486Z,7.82
2023-01-13T03:24:17.678Z,7.82
2023-01-13T03:26:50.460Z,7.85
2023-01-13T03:29:23.301Z,7.78
2023-01-13T03:31:58.269Z,7.86
2023-01-13T03:34:34.664Z,7.90
2023-01-13T03:37:07.347Z,7.91
2023-01-13T03:39:40.622Z,7.91
2023-01-13T03:42:12.795Z,7.93
2023-01-13T03:44:45.310Z,7.94
2023-01-13T03:47:25.301Z,8.00
2023-01-13T03:49:57.405Z,8.01
2023-01-13T03:52:30.534Z,7.99
2023-01-13T03:55:03.420Z,7.99
2023-01-13T03:57:36.100Z,7.99
2023-01-13T04:00:09.719Z,7.99
2023-01-13T04:02:48.357Z,7.90
2023-01-13T04:05:18.305Z,7.93
2023-01-13T04:07:57.859Z,7.92
2023-01-13T04:10:31.534Z,7.92
2023-01-13T04:13:03.263Z,7.88
2023-01-13T04:15:35.478Z,7.86
2023-01-13T04:18:11.990Z,7.91
2023-01-13T04:20:41.070Z,7.86
2023-01-13T04:23:09.557Z,7.87
2023-01-13T04:25:38.149Z,7.83
2023-01-13T04:28:09.787Z,7.82
2023-01-13T04:30:38.304Z,7.83
2023-01-13T04:33:08.395Z,7.79
2023-01-13T04:35:37.428Z,7.76
2023-01-13T04:38:07.130Z,7.75
2023-01-13T04:40:35.405Z,7.71
2023-01-13T04:43:03.918Z,7.70
2023-01-13T04:45:32.283Z,7.69
2023-01-13T04:48:05.303Z,7.69
2023-01-13T04:50:36.184Z,7.81
2023-01-13T04:53:04.783Z,7.71
2023-01-13T04:55:33.273Z,7.68
2023-01-13T04:58:05.871Z,7.62
2023-01-13T05:00:34.337Z,7.64
2023-01-13T05:03:02.835Z,7.68
2023-01-13T05:05:32.244Z,7.62
2023-01-13T05:08:01.980Z,7.63
2023-01-13T05:10:30.156Z,7.62
2023-01-13T05:13:15.717Z,7.64
2023-01-13T05:16:04.118Z,7.63
2023-01-13T05:18:33.452Z,7.53
2023-01-13T05:21:01.674Z,7.51
2023-01-13T05:23:48.681Z,7.49
2023-01-13T05:26:16.776Z,7.47
2023-01-13T05:28:45.015Z,7.49
2023-01-13T05:31:14.992Z,7.45
2023-01-13T05:33:43.275Z,7.48
2023-01-13T05:36:11.461Z,7.49
2023-01-13T05:38:42.248Z,7.49
2023-01-13T05:41:28.512Z,7.51
2023-01-13T05:43:56.762Z,7.57
2023-01-13T05:46:25.121Z,7.56
2023-01-13T05:48:53.289Z,7.59
2023-01-13T05:51:26.334Z,7.55
2023-01-13T05:53:55.841Z,7.53
2023-01-13T05:56:24.072Z,7.53
2023-01-13T05:58:52.195Z,7.53
2023-01-13T06:01:20.455Z,7.52
2023-01-13T06:03:48.688Z,7.50
2023-01-13T06:06:17.104Z,7.52
2023-01-13T06:08:45.280Z,7.52
2023-01-13T06:11:14.876Z,7.49
2023-01-13T06:13:43.419Z,7.52
2023-01-13T06:16:12.003Z,7.52
2023-01-13T06:18:40.145Z,7.50
2023-01-13T06:21:08.276Z,7.50
2023-01-13T06:23:38.853Z,7.49
2023-01-13T06:26:11.277Z,7.49
2023-01-13T06:28:41.030Z,7.46
2023-01-13T06:31:11.106Z,7.47
2023-01-13T06:33:42.399Z,7.48
2023-01-13T06:36:15.029Z,7.45
2023-01-13T06:38:46.390Z,7.47
2023-01-13T06:41:14.931Z,7.47
2023-01-13T06:43:43.505Z,7.47
2023-01-13T06:46:11.718Z,7.46
2023-01-13T06:48:39.895Z,7.43
2023-01-13T06:51:08.022Z,7.39
2023-01-13T06:53:36.089Z,7.42
2023-01-13T06:56:06.622Z,7.45
2023-01-13T06:58:34.785Z,7.42
2023-01-13T07:01:04.517Z,7.43
2023-01-13T07:03:32.858Z,7.45
2023-01-13T07:06:02.359Z,7.42
2023-01-13T07:08:30.654Z,7.47
2023-01-13T07:10:58.940Z,7.49
2023-01-13T07:13:44.828Z,7.45
2023-01-13T07:16:14.472Z,7.48
2023-01-13T07:18:42.637Z,7.46
2023-01-13T07:21:13.346Z,7.45
2023-01-13T07:23:42.692Z,7.45
2023-01-13T07:26:12.291Z,7.47
2023-01-13T07:28:40.833Z,7.46
2023-01-13T07:31:17.251Z,7.47
2023-01-13T07:33:45.581Z,7.50
2023-01-13T07:36:14.587Z,7.48
2023-01-13T07:38:44.721Z,7.48
2023-01-13T07:41:31.052Z,7.52
2023-01-13T07:44:00.354Z,7.48
2023-01-13T07:46:30.013Z,7.49
2023-01-13T07:48:58.248Z,7.50
2023-01-13T07:51:26.523Z,7.51
2023-01-13T07:53:55.024Z,7.46
2023-01-13T07:56:23.118Z,7.49
2023-01-13T07:58:53.021Z,7.48
2023-01-13T08:01:22.636Z,7.50
2023-01-13T08:03:52.311Z,7.45
2023-01-13T08:06:20.509Z,7.43
2023-01-13T08:08:49.025Z,7.44
2023-01-13T08:11:17.243Z,7.44
2023-01-13T08:13:45.668Z,7.42
2023-01-13T08:16:16.105Z,7.45
2023-01-13T08:18:44.846Z,7.45
2023-01-13T08:21:15.525Z,7.45
2023-01-13T08:23:45.926Z,7.41
2023-01-13T08:26:16.609Z,7.42
2023-01-13T08:28:45.852Z,7.37
2023-01-13T08:31:16.499Z,7.32
2023-01-13T08:33:45.119Z,7.30
2023-01-13T08:36:14.765Z,7.28
2023-01-13T08:38:43.438Z,7.29
2023-01-13T08:41:12.908Z,7.30
2023-01-13T08:43:41.063Z,7.35
2023-01-13T08:46:09.424Z,7.34
2023-01-13T08:48:37.825Z,7.33
2023-01-13T08:51:07.857Z,7.34
2023-01-13T08:53:37.551Z,7.33
2023-01-13T08:56:11.034Z,7.36
2023-01-13T08:58:39.429Z,7.37
2023-01-13T09:01:08.686Z,7.39
2023-01-13T09:03:36.967Z,7.45
2023-01-13T09:06:05.740Z,7.42
2023-01-13T09:08:34.019Z,7.37
2023-01-13T09:11:24.324Z,7.40
2023-01-13T09:13:51.473Z,7.41
2023-01-13T09:16:19.667Z,7.42
2023-01-13T09:18:47.994Z,7.39
2023-01-13T09:21:16.628Z,7.39
2023-01-13T09:23:44.845Z,7.43
2023-01-13T09:26:17.735Z,7.42
2023-01-13T09:28:46.027Z,7.42
2023-01-13T09:31:14.386Z,7.39
2023-01-13T09:33:59.154Z,7.42
2023-01-13T09:36:27.241Z,7.42
2023-01-13T09:38:55.446Z,7.42
2023-01-13T09:41:45.004Z,7.47
2023-01-13T09:44:19.359Z,7.51
2023-01-13T09:46:52.594Z,7.54
2023-01-13T09:49:24.586Z,7.55
2023-01-13T09:52:00.169Z,7.59
2023-01-13T09:54:35.074Z,7.62
2023-01-13T09:57:11.371Z,7.67
2023-01-13T09:59:39.948Z,7.71
2023-01-13T10:02:31.788Z,7.77
2023-01-13T10:05:11.296Z,7.81
2023-01-13T10:07:46.281Z,7.83
2023-01-13T10:10:20.211Z,7.84
2023-01-13T10:13:09.477Z,7.88
2023-01-13T10:15:37.948Z,7.91
2023-01-13T10:18:17.529Z,7.93
2023-01-13T10:20:58.048Z,7.96
2023-01-13T10:23:48.474Z,7.97
2023-01-13T10:26:31.906Z,8.03
2023-01-13T10:29:01.735Z,8.06
2023-01-13T10:31:29.908Z,8.06
2023-01-13T10:34:03.981Z,8.13
2023-01-13T10:36:32.111Z,8.13
2023-01-13T10:39:09.804Z,8.19
2023-01-13T10:41:38.069Z,8.26
2023-01-13T10:44:17.318Z,8.32
2023-01-13T10:46:53.757Z,8.32
2023-01-13T10:49:31.201Z,8.36
2023-01-13T10:52:00.030Z,8.56
2023-01-13T10:54:28.580Z,8.56
2023-01-13T10:57:20.029Z,8.63
2023-01-13T10:59:52.927Z,8.56
2023-01-13T11:02:27.900Z,8.49
2023-01-13T11:05:04.025Z,8.55
2023-01-13T11:07:36.647Z,8.57
2023-01-13T11:10:17.650Z,8.63
2023-01-13T11:12:52.702Z,8.69
2023-01-13T11:15:26.397Z,8.77
2023-01-13T11:18:01.522Z,8.81
2023-01-13T11:20:37.018Z,8.83
2023-01-13T11:23:14.923Z,8.87
2023-01-13T11:25:48.139Z,8.91
2023-01-13T11:28:35.590Z,8.95
2023-01-13T11:31:15.660Z,9.05
2023-01-13T11:33:49.738Z,9.08
2023-01-13T11:36:22.947Z,9.13
2023-01-13T11:38:53.890Z,9.19
2023-01-13T11:41:43.415Z,9.20
2023-01-13T11:44:24.647Z,9.24
2023-01-13T11:46:55.648Z,9.29
2023-01-13T11:49:27.621Z,9.32
2023-01-13T11:52:03.056Z,9.32
2023-01-13T11:55:00.640Z,9.34
2023-01-13T11:58:01.542Z,9.37
2023-01-13T12:00:38.044Z,9.41
2023-01-13T12:03:25.713Z,9.42
2023-01-13T12:06:09.190Z,9.48
2023-01-13T12:08:54.375Z,9.48
2023-01-13T12:11:29.724Z,9.56
2023-01-13T12:14:19.914Z,9.51
2023-01-13T12:16:50.784Z,9.53
2023-01-13T12:19:28.213Z,9.54
2023-01-13T12:22:12.445Z,9.53
2023-01-13T12:24:48.833Z,9.57
2023-01-13T12:27:23.575Z,9.59
2023-01-13T12:29:58.410Z,9.62
2023-01-13T12:32:32.451Z,9.61
2023-01-13T12:35:24.336Z,9.60
2023-01-13T12:37:58.788Z,9.60
2023-01-13T12:40:42.863Z,9.61
2023-01-13T12:43:35.315Z,9.64
2023-01-13T12:46:45.717Z,9.60
2023-01-13T12:49:26.858Z,9.61
2023-01-13T12:52:23.467Z,9.63
2023-01-13T12:55:15.056Z,9.65
2023-01-13T12:57:58.404Z,9.70
2023-01-13T13:00:33.534Z,9.72
2023-01-13T13:03:29.035Z,9.70
2023-01-13T13:06:02.400Z,9.70
2023-01-13T13:08:45.867Z,9.70
2023-01-13T13:11:53.701Z,9.73
2023-01-13T13:14:55.154Z,9.73
2023-01-13T13:17:43.379Z,9.72
2023-01-13T13:20:44.891Z,9.70
2023-01-13T13:23:29.260Z,9.69
2023-01-13T13:26:04.794Z,9.72
2023-01-13T13:28:38.329Z,9.76
2023-01-13T13:31:25.771Z,9.77
2023-01-13T13:34:14.525Z,9.75
2023-01-13T13:37:05.521Z,9.71
2023-01-13T13:39:51.727Z,9.73
2023-01-13T13:42:52.024Z,9.71
2023-01-13T13:45:40.360Z,9.77
2023-01-13T13:48:23.137Z,9.80
2023-01-13T13:50:56.700Z,9.81
2023-01-13T13:53:28.469Z,9.81
2023-01-13T13:55:59.696Z,9.74
2023-01-13T13:58:31.412Z,9.73
2023-01-13T14:01:00.987Z,9.76
2023-01-13T14:03:32.334Z,9.76
2023-01-13T14:06:02.850Z,9.78
2023-01-13T14:08:34.045Z,9.78
2023-01-13T14:11:02.958Z,9.85
2023-01-13T14:13:33.199Z,9.84
2023-01-13T14:16:03.508Z,9.83
2023-01-13T14:18:46.499Z,9.80
2023-01-13T14:21:21.723Z,9.72
2023-01-13T14:23:53.578Z,9.68
2023-01-13T14:26:26.834Z,9.65
2023-01-13T14:28:58.951Z,9.63
2023-01-13T14:31:27.474Z,9.59
2023-01-13T14:33:58.613Z,9.54
2023-01-13T14:36:37.254Z,9.47
2023-01-13T14:39:25.129Z,9.43
2023-01-13T14:41:53.741Z,9.44
2023-01-13T14:44:27.525Z,9.37
2023-01-13T14:46:57.388Z,9.35
2023-01-13T14:49:30.196Z,9.32
2023-01-13T14:52:08.293Z,9.30
2023-01-13T14:54:49.119Z,9.25
2023-01-13T14:57:27.690Z,9.23
2023-01-13T15:00:25.074Z,9.16
2023-01-13T15:03:08.649Z,9.13
2023-01-13T15:05:47.782Z,9.13
2023-01-13T15:08:40.392Z,9.06
2023-01-13T15:11:18.694Z,9.02
2023-01-13T15:13:52.985Z,8.99
2023-01-13T15:16:26.601Z,9.00
2023-01-13T15:18:56.278Z,9.00
2023-01-13T15:21:25.206Z,8.99
2023-01-13T15:23:53.501Z,8.98
2023-01-13T15:26:24.666Z,8.96
2023-01-13T15:28:54.149Z,8.94
2023-01-13T15:31:24.793Z,8.96
2023-01-13T15:33:53.021Z,8.93
2023-01-13T15:36:24.618Z,8.94
2023-01-13T15:38:52.525Z,8.91
2023-01-13T15:41:42.117Z,8.89
2023-01-13T15:44:29.559Z,8.86
2023-01-13T15:47:02.714Z,8.85
2023-01-13T15:49:36.274Z,8.84
2023-01-13T15:52:05.723Z,8.87
2023-01-13T15:54:33.954Z,8.87
2023-01-13T15:57:02.373Z,8.87
2023-01-13T15:59:30.547Z,8.88
2023-01-13T16:02:00.081Z,8.86
2023-01-13T16:04:28.157Z,8.87
2023-01-13T16:06:56.412Z,8.84
2023-01-13T16:09:24.637Z,8.80
2023-01-13T16:11:52.796Z,8.78
2023-01-13T16:14:20.958Z,8.80
2023-01-13T16:16:49.117Z,8.80
2023-01-13T16:19:18.614Z,8.79
2023-01-13T16:21:46.876Z,8.74
2023-01-13T16:24:14.993Z,8.74
2023-01-13T16:26:43.099Z,8.69
2023-01-13T16:29:12.705Z,8.70
2023-01-13T16:31:41.164Z,8.70
2023-01-13T16:34:09.410Z,8.70
2023-01-13T16:36:39.107Z,8.71
2023-01-13T16:39:20.958Z,8.71
2023-01-13T16:41:49.329Z,8.68
2023-01-13T16:44:17.608Z,8.67
2023-01-13T16:46:46.165Z,8.70
2023-01-13T16:49:16.312Z,8.70
2023-01-13T16:51:46.071Z,8.69
2023-01-13T16:54:14.541Z,8.68
2023-01-13T16:56:42.804Z,8.66
2023-01-13T16:59:13.734Z,8.66
2023-01-13T17:01:44.908Z,8.65
2023-01-13T17:04:16.916Z,8.66
2023-01-13T17:06:54.539Z,8.65
2023-01-13T17:09:25.453Z,8.65
2023-01-13T17:11:54.264Z,8.64
2023-01-13T17:14:23.645Z,8.64
2023-01-13T17:16:53.306Z,8.64
2023-01-13T17:19:23.671Z,8.62
2023-01-13T17:21:53.465Z,8.62
2023-01-13T17:24:22.142Z,8.63
2023-01-13T17:26:51.737Z,8.61
2023-01-13T17:29:22.764Z,8.61
2023-01-13T17:31:51.552Z,8.61
2023-01-13T17:34:21.136Z,8.61
2023-01-13T17:36:49.418Z,8.58
2023-01-13T17:39:21.398Z,8.66
2023-01-13T17:41:50.599Z,8.63
2023-01-13T17:44:20.664Z,8.65
2023-01-13T17:46:49.444Z,8.64
2023-01-13T17:49:19.615Z,8.65
2023-01-13T17:51:48.499Z,8.62
2023-01-13T17:54:18.733Z,8.66
2023-01-13T17:56:47.079Z,8.68
2023-01-13T17:59:16.452Z,8.69
2023-01-13T18:01:44.934Z,8.68
2023-01-13T18:04:16.927Z,8.67
2023-01-13T18:06:45.649Z,8.68
2023-01-13T18:09:14.049Z,8.70
2023-01-13T18:11:44.661Z,8.68
2023-01-13T18:14:13.907Z,8.67
2023-01-13T18:16:42.136Z,8.66
2023-01-13T18:19:29.358Z,8.67
2023-01-13T18:22:15.012Z,8.66
2023-01-13T18:25:00.995Z,8.63
2023-01-13T18:27:33.517Z,8.62
2023-01-13T18:30:03.414Z,8.59
2023-01-13T18:32:33.614Z,8.58
2023-01-13T18:35:06.800Z,8.56
2023-01-13T18:37:38.707Z,8.56
2023-01-13T18:40:09.474Z,8.57
2023-01-13T18:42:59.106Z,8.55
2023-01-13T18:45:29.618Z,8.55
2023-01-13T18:47:59.523Z,8.57
2023-01-13T18:50:28.387Z,8.57
2023-01-13T18:52:57.245Z,8.58
2023-01-13T18:55:25.803Z,8.53
2023-01-13T18:57:55.628Z,8.56
2023-01-13T19:00:25.143Z,8.56
2023-01-13T19:05:35.562Z,8.54
2023-01-13T19:08:03.975Z,8.57
2023-01-13T19:10:32.954Z,8.58
2023-01-13T19:13:02.810Z,8.57
2023-01-13T19:15:31.675Z,8.59
2023-01-13T19:18:00.299Z,8.58
2023-01-13T19:20:28.634Z,8.61
2023-01-13T19:22:56.839Z,8.59
2023-01-13T19:25:24.953Z,8.61
2023-01-13T19:27:53.080Z,8.58
2023-01-13T19:30:22.832Z,8.62
2023-01-13T19:32:51.311Z,8.60
2023-01-13T19:35:20.215Z,8.56
2023-01-13T19:37:48.489Z,8.57
2023-01-13T19:40:17.237Z,8.55
2023-01-13T19:43:14.596Z,8.54
2023-01-13T19:45:44.996Z,8.55
2023-01-13T19:48:16.179Z,8.49
2023-01-13T19:50:44.326Z,8.43
2023-01-13T19:53:17.209Z,8.47
2023-01-13T19:55:48.548Z,8.49
2023-01-13T19:58:18.917Z,8.45
2023-01-13T20:00:48.734Z,8.40
2023-01-13T20:03:23.748Z,8.39
2023-01-13T20:05:52.117Z,8.38
2023-01-13T20:08:21.016Z,8.33
2023-01-13T20:10:50.075Z,8.34
2023-01-13T20:13:18.152Z,8.30
2023-01-13T20:15:46.454Z,8.32
2023-01-13T20:18:16.096Z,8.33
2023-01-13T20:20:44.613Z,8.32
2023-01-13T20:23:12.834Z,8.33
2023-01-13T20:25:43.376Z,8.38
2023-01-13T20:28:11.468Z,8.38
2023-01-13T20:30:41.792Z,8.37
2023-01-13T20:33:09.982Z,8.39
2023-01-13T20:35:39.588Z,8.42
2023-01-13T20:38:07.866Z,8.44
2023-01-13T20:40:36.040Z,8.43
2023-01-13T20:43:05.543Z,8.43
2023-01-13T20:45:34.111Z,8.41
2023-01-13T20:48:02.227Z,8.45
2023-01-13T20:50:30.383Z,8.46
2023-01-13T20:52:59.953Z,8.45
2023-01-13T20:55:28.100Z,8.47
2023-01-13T20:57:56.258Z,8.47
2023-01-13T21:00:24.535Z,8.46
2023-01-13T21:02:52.630Z,8.44
2023-01-13T21:05:20.929Z,8.47
2023-01-13T21:07:49.133Z,8.48
2023-01-13T21:10:18.931Z,8.50
2023-01-13T21:13:04.842Z,8.50
2023-01-13T21:15:32.951Z,8.56
2023-01-13T21:18:18.858Z,8.61
2023-01-13T21:20:47.063Z,8.66
2023-01-13T21:23:15.703Z,8.67
2023-01-13T21:25:45.164Z,8.70
2023-01-13T21:28:14.149Z,8.77
2023-01-13T21:30:42.882Z,8.82
2023-01-13T21:33:14.545Z,8.89
2023-01-13T21:35:42.683Z,8.97
2023-01-13T21:38:12.408Z,9.04
2023-01-13T21:40:40.700Z,9.11
2023-01-13T21:43:30.337Z,9.17
2023-01-13T21:46:16.053Z,9.21
2023-01-13T21:48:44.412Z,9.26
2023-01-13T21:51:12.574Z,9.30
2023-01-13T21:53:40.702Z,9.31
2023-01-13T21:56:09.274Z,9.35
2023-01-13T21:58:40.216Z,9.39
2023-01-13T22:01:09.937Z,9.41
2023-01-13T22:03:54.671Z,9.41
2023-01-13T22:06:22.891Z,9.45
2023-01-13T22:08:51.146Z,9.47
2023-01-13T22:11:19.422Z,9.48
2023-01-13T22:14:08.984Z,9.50
2023-01-13T22:16:39.904Z,9.53
2023-01-13T22:19:08.994Z,9.55
2023-01-13T22:21:37.588Z,9.58
2023-01-13T22:24:06.498Z,9.66
2023-01-13T22:26:35.670Z,9.69
2023-01-13T22:29:05.314Z,9.73
2023-01-13T22:31:33.591Z,9.72
2023-01-13T22:34:01.748Z,9.71
2023-01-13T22:36:29.922Z,9.68
2023-01-13T22:39:00.327Z,9.66
2023-01-13T22:41:28.669Z,9.62
2023-01-13T22:43:56.945Z,9.56
2023-01-13T22:46:26.683Z,9.54
2023-01-13T22:48:56.050Z,9.48
2023-01-13T22:51:24.431Z,9.47
2023-01-13T22:53:52.674Z,9.45
2023-01-13T22:56:23.416Z,9.44
2023-01-13T22:58:54.755Z,9.42
2023-01-13T23:01:23.845Z,9.41
2023-01-13T23:03:53.891Z,9.43
2023-01-13T23:06:23.724Z,9.45
2023-01-13T23:08:52.529Z,9.44
2023-01-13T23:11:23.583Z,9.43
2023-01-13T23:13:51.700Z,9.43
2023-01-13T23:16:22.136Z,9.35
2023-01-13T23:18:50.648Z,9.31
2023-01-13T23:21:23.015Z,9.28
2023-01-13T23:23:51.751Z,9.27
2023-01-13T23:26:20.968Z,9.27
2023-01-13T23:28:49.472Z,9.25
2023-01-13T23:31:20.008Z,9.25
2023-01-13T23:33:48.752Z,9.24
2023-01-13T23:36:20.775Z,9.22
2023-01-13T23:38:49.001Z,9.23
2023-01-13T23:41:18.597Z,9.23
2023-01-13T23:43:51.956Z,9.21
2023-01-13T23:46:21.275Z,9.23
2023-01-13T23:48:49.591Z,9.25
2023-01-13T23:51:22.303Z,9.24
2023-01-13T23:53:52.002Z,9.25
2023-01-13T23:56:22.779Z,9.25
2023-01-13T23:58:52.256Z,9.28
